sensor_id;sensor_type;location;lat;lon;timestamp;P1;durP1;ratioP1;P2;durP2;ratioP2
21624;SDS011;10974;51.034;3.744;2023-04-03T03:39:24;8.83;;;5.13;;
21624;SDS011;10974;51.034;3.744;2023-04-03T03:41:50;7.60;;;4.90;;
21624;SDS011;10974;51.034;3.744;2023-04-03T03:44:18;7.77;;;4.53;;
21624;SDS011;10974;51.034;3.744;2023-04-03T03:46:44;7.43;;;5.00;;
21624;SDS011;10974;51.034;3.744;2023-04-03T03:49:10;6.67;;;4.30;;
21624;SDS011;10974;51.034;3.744;2023-04-03T03:51:37;6.47;;;4.23;;
21624;SDS011;10974;51.034;3.744;2023-04-03T03:54:03;7.00;;;4.30;;
21624;SDS011;10974;51.034;3.744;2023-04-03T03:56:29;5.53;;;4.10;;
21624;SDS011;10974;51.034;3.744;2023-04-03T03:58:55;7.43;;;4.20;;
21624;SDS011;10974;51.034;3.744;2023-04-03T04:01:22;8.83;;;4.40;;
21624;SDS011;10974;51.034;3.744;2023-04-03T04:03:48;5.03;;;4.43;;
21624;SDS011;10974;51.034;3.744;2023-04-03T04:06:14;5.60;;;4.33;;
21624;SDS011;10974;51.034;3.744;2023-04-03T04:08:40;6.40;;;4.73;;
21624;SDS011;10974;51.034;3.744;2023-04-03T04:11:07;6.77;;;4.53;;
21624;SDS011;10974;51.034;3.744;2023-04-03T04:13:33;5.40;;;4.00;;
21624;SDS011;10974;51.034;3.744;2023-04-03T04:15:59;7.17;;;4.50;;
21624;SDS011;10974;51.034;3.744;2023-04-03T04:18:25;7.30;;;4.63;;
21624;SDS011;10974;51.034;3.744;2023-04-03T04:20:51;5.97;;;4.17;;
21624;SDS011;10974;51.034;3.744;2023-04-03T04:23:17;5.40;;;3.70;;
21624;SDS011;10974;51.034;3.744;2023-04-03T04:25:47;4.90;;;4.07;;
21624;SDS011;10974;51.034;3.744;2023-04-03T04:28:13;6.57;;;3.50;;
21624;SDS011;10974;51.034;3.744;2023-04-03T04:30:39;5.10;;;4.23;;
21624;SDS011;10974;51.034;3.744;2023-04-03T04:33:05;6.37;;;3.87;;
21624;SDS011;10974;51.034;3.744;2023-04-03T04:35:32;4.70;;;4.07;;
21624;SDS011;10974;51.034;3.744;2023-04-03T04:37:58;8.13;;;4.40;;
21624;SDS011;10974;51.034;3.744;2023-04-03T04:40:25;6.10;;;4.87;;
21624;SDS011;10974;51.034;3.744;2023-04-03T04:42:51;7.03;;;4.20;;
21624;SDS011;10974;51.034;3.744;2023-04-03T04:45:17;5.70;;;3.80;;
21624;SDS011;10974;51.034;3.744;2023-04-03T04:47:43;6.87;;;4.60;;
21624;SDS011;10974;51.034;3.744;2023-04-03T04:50:10;4.27;;;3.90;;
21624;SDS011;10974;51.034;3.744;2023-04-03T04:52:36;8.10;;;4.50;;
21624;SDS011;10974;51.034;3.744;2023-04-03T04:55:02;7.17;;;4.50;;
21624;SDS011;10974;51.034;3.744;2023-04-03T04:57:29;4.53;;;4.10;;
21624;SDS011;10974;51.034;3.744;2023-04-03T04:59:55;6.50;;;4.40;;
21624;SDS011;10974;51.034;3.744;2023-04-03T05:02:21;6.97;;;4.10;;
21624;SDS011;10974;51.034;3.744;2023-04-03T05:04:47;5.70;;;4.50;;
21624;SDS011;10974;51.034;3.744;2023-04-03T05:07:15;5.53;;;3.93;;
21624;SDS011;10974;51.034;3.744;2023-04-03T05:09:41;6.13;;;4.10;;
21624;SDS011;10974;51.034;3.744;2023-04-03T05:12:07;5.33;;;4.17;;
21624;SDS011;10974;51.034;3.744;2023-04-03T05:14:33;8.57;;;4.70;;
21624;SDS011;10974;51.034;3.744;2023-04-03T05:16:59;5.43;;;4.07;;
21624;SDS011;10974;51.034;3.744;2023-04-03T05:19:25;6.30;;;4.73;;
21624;SDS011;10974;51.034;3.744;2023-04-03T05:21:51;6.40;;;4.80;;
21624;SDS011;10974;51.034;3.744;2023-04-03T05:24:17;6.87;;;5.10;;
21624;SDS011;10974;51.034;3.744;2023-04-03T05:26:43;11.50;;;7.20;;
21624;SDS011;10974;51.034;3.744;2023-04-03T05:29:09;14.50;;;8.33;;
21624;SDS011;10974;51.034;3.744;2023-04-03T05:31:35;24.53;;;13.90;;
21624;SDS011;10974;51.034;3.744;2023-04-03T05:34:02;17.37;;;9.00;;
21624;SDS011;10974;51.034;3.744;2023-04-03T05:36:28;11.00;;;6.77;;
21624;SDS011;10974;51.034;3.744;2023-04-03T05:38:54;6.97;;;5.33;;
21624;SDS011;10974;51.034;3.744;2023-04-03T05:41:21;7.13;;;4.90;;
21624;SDS011;10974;51.034;3.744;2023-04-03T05:43:47;11.90;;;5.63;;
21624;SDS011;10974;51.034;3.744;2023-04-03T05:46:15;7.77;;;5.70;;
21624;SDS011;10974;51.034;3.744;2023-04-03T05:48:41;7.20;;;5.50;;
21624;SDS011;10974;51.034;3.744;2023-04-03T05:51:12;6.80;;;5.33;;
21624;SDS011;10974;51.034;3.744;2023-04-03T05:53:39;6.60;;;4.50;;
21624;SDS011;10974;51.034;3.744;2023-04-03T05:56:06;8.90;;;5.33;;
21624;SDS011;10974;51.034;3.744;2023-04-03T05:58:32;10.50;;;5.93;;
21624;SDS011;10974;51.034;3.744;2023-04-03T06:00:58;7.77;;;5.37;;
21624;SDS011;10974;51.034;3.744;2023-04-03T06:03:25;6.00;;;4.50;;
21624;SDS011;10974;51.034;3.744;2023-04-03T06:05:51;7.50;;;5.17;;
21624;SDS011;10974;51.034;3.744;2023-04-03T06:08:17;8.00;;;4.63;;
21624;SDS011;10974;51.034;3.744;2023-04-03T06:10:43;7.27;;;5.63;;
21624;SDS011;10974;51.034;3.744;2023-04-03T06:13:09;11.07;;;5.57;;
21624;SDS011;10974;51.034;3.744;2023-04-03T06:15:36;6.20;;;4.70;;
21624;SDS011;10974;51.034;3.744;2023-04-03T06:18:04;7.60;;;5.23;;
21624;SDS011;10974;51.034;3.744;2023-04-03T06:20:30;6.57;;;4.50;;
21624;SDS011;10974;51.034;3.744;2023-04-03T06:22:56;9.20;;;5.00;;
21624;SDS011;10974;51.034;3.744;2023-04-03T06:25:22;12.53;;;5.60;;
21624;SDS011;10974;51.034;3.744;2023-04-03T06:27:49;6.17;;;4.77;;
21624;SDS011;10974;51.034;3.744;2023-04-03T06:30:15;7.20;;;5.23;;
21624;SDS011;10974;51.034;3.744;2023-04-03T06:32:41;7.23;;;5.27;;
21624;SDS011;10974;51.034;3.744;2023-04-03T06:35:08;6.40;;;4.97;;
21624;SDS011;10974;51.034;3.744;2023-04-03T06:37:34;9.90;;;5.13;;
21624;SDS011;10974;51.034;3.744;2023-04-03T06:40:00;7.70;;;5.30;;
21624;SDS011;10974;51.034;3.744;2023-04-03T06:42:26;7.33;;;5.37;;
21624;SDS011;10974;51.034;3.744;2023-04-03T06:44:52;14.20;;;5.23;;
21624;SDS011;10974;51.034;3.744;2023-04-03T06:47:18;11.40;;;5.50;;
21624;SDS011;10974;51.034;3.744;2023-04-03T06:49:44;7.37;;;4.70;;
21624;SDS011;10974;51.034;3.744;2023-04-03T06:52:11;9.13;;;5.40;;
21624;SDS011;10974;51.034;3.744;2023-04-03T06:54:37;7.30;;;4.73;;
21624;SDS011;10974;51.034;3.744;2023-04-03T06:57:03;7.90;;;5.03;;
21624;SDS011;10974;51.034;3.744;2023-04-03T06:59:29;7.83;;;4.33;;
21624;SDS011;10974;51.034;3.744;2023-04-03T07:01:55;8.37;;;4.90;;
21624;SDS011;10974;51.034;3.744;2023-04-03T07:04:23;6.17;;;4.47;;
21624;SDS011;10974;51.034;3.744;2023-04-03T07:06:49;15.83;;;4.60;;
21624;SDS011;10974;51.034;3.744;2023-04-03T07:09:15;7.80;;;4.70;;
21624;SDS011;10974;51.034;3.744;2023-04-03T07:11:41;10.33;;;4.83;;
21624;SDS011;10974;51.034;3.744;2023-04-03T07:14:07;8.57;;;5.00;;
21624;SDS011;10974;51.034;3.744;2023-04-03T07:16:34;6.77;;;4.70;;
21624;SDS011;10974;51.034;3.744;2023-04-03T07:19:00;5.20;;;4.20;;
21624;SDS011;10974;51.034;3.744;2023-04-03T07:21:26;6.00;;;4.80;;
21624;SDS011;10974;51.034;3.744;2023-04-03T07:23:53;7.13;;;4.70;;
21624;SDS011;10974;51.034;3.744;2023-04-03T07:26:19;6.10;;;5.13;;
21624;SDS011;10974;51.034;3.744;2023-04-03T07:28:46;5.97;;;4.30;;
21624;SDS011;10974;51.034;3.744;2023-04-03T07:31:13;7.27;;;4.77;;
21624;SDS011;10974;51.034;3.744;2023-04-03T07:33:40;6.60;;;4.67;;
21624;SDS011;10974;51.034;3.744;2023-04-03T07:36:07;6.50;;;4.47;;
21624;SDS011;10974;51.034;3.744;2023-04-03T07:38:34;9.10;;;4.70;;
21624;SDS011;10974;51.034;3.744;2023-04-03T07:41:01;7.03;;;4.63;;
21624;SDS011;10974;51.034;3.744;2023-04-03T07:43:27;5.37;;;4.63;;
21624;SDS011;10974;51.034;3.744;2023-04-03T07:45:53;7.03;;;5.13;;
21624;SDS011;10974;51.034;3.744;2023-04-03T07:48:24;10.00;;;5.30;;
21624;SDS011;10974;51.034;3.744;2023-04-03T07:50:51;5.60;;;4.37;;
21624;SDS011;10974;51.034;3.744;2023-04-03T07:53:17;9.83;;;5.10;;
21624;SDS011;10974;51.034;3.744;2023-04-03T07:55:47;6.97;;;4.33;;
21624;SDS011;10974;51.034;3.744;2023-04-03T07:58:14;7.07;;;4.60;;
21624;SDS011;10974;51.034;3.744;2023-04-03T08:00:40;6.93;;;4.63;;
21624;SDS011;10974;51.034;3.744;2023-04-03T08:03:08;8.80;;;5.07;;
21624;SDS011;10974;51.034;3.744;2023-04-03T08:05:38;6.70;;;5.20;;
21624;SDS011;10974;51.034;3.744;2023-04-03T08:08:05;11.80;;;4.97;;
21624;SDS011;10974;51.034;3.744;2023-04-03T08:10:32;10.80;;;5.03;;
21624;SDS011;10974;51.034;3.744;2023-04-03T08:12:58;8.80;;;5.53;;
21624;SDS011;10974;51.034;3.744;2023-04-03T08:15:25;9.57;;;5.00;;
21624;SDS011;10974;51.034;3.744;2023-04-03T08:17:51;10.30;;;6.10;;
21624;SDS011;10974;51.034;3.744;2023-04-03T08:20:18;13.03;;;5.83;;
21624;SDS011;10974;51.034;3.744;2023-04-03T08:22:44;7.57;;;5.37;;
21624;SDS011;10974;51.034;3.744;2023-04-03T08:25:10;9.70;;;4.93;;
21624;SDS011;10974;51.034;3.744;2023-04-03T08:27:36;7.40;;;6.10;;
21624;SDS011;10974;51.034;3.744;2023-04-03T08:30:03;7.23;;;5.00;;
21624;SDS011;10974;51.034;3.744;2023-04-03T08:32:29;8.10;;;5.30;;
21624;SDS011;10974;51.034;3.744;2023-04-03T08:34:55;7.17;;;5.27;;
21624;SDS011;10974;51.034;3.744;2023-04-03T08:37:21;7.20;;;5.30;;
21624;SDS011;10974;51.034;3.744;2023-04-03T08:39:48;8.40;;;4.77;;
21624;SDS011;10974;51.034;3.744;2023-04-03T08:42:15;10.93;;;4.43;;
21624;SDS011;10974;51.034;3.744;2023-04-03T08:44:46;5.80;;;4.20;;
21624;SDS011;10974;51.034;3.744;2023-04-03T08:50:07;6.13;;;3.43;;
21624;SDS011;10974;51.034;3.744;2023-04-03T08:55:03;4.47;;;3.30;;
21624;SDS011;10974;51.034;3.744;2023-04-03T08:57:30;4.10;;;3.00;;
21624;SDS011;10974;51.034;3.744;2023-04-03T08:59:58;4.53;;;3.20;;
21624;SDS011;10974;51.034;3.744;2023-04-03T09:02:29;9.03;;;3.57;;
21624;SDS011;10974;51.034;3.744;2023-04-03T09:04:57;4.80;;;3.20;;
21624;SDS011;10974;51.034;3.744;2023-04-03T09:07:36;5.20;;;2.60;;
21624;SDS011;10974;51.034;3.744;2023-04-03T09:10:05;7.93;;;3.07;;
21624;SDS011;10974;51.034;3.744;2023-04-03T09:12:38;4.83;;;2.93;;
21624;SDS011;10974;51.034;3.744;2023-04-03T09:22:27;4.73;;;2.80;;
21624;SDS011;10974;51.034;3.744;2023-04-03T09:25:15;5.90;;;2.80;;
21624;SDS011;10974;51.034;3.744;2023-04-03T09:27:40;4.40;;;2.50;;
21624;SDS011;10974;51.034;3.744;2023-04-03T09:30:11;4.93;;;2.77;;
21624;SDS011;10974;51.034;3.744;2023-04-03T09:32:38;3.57;;;2.63;;
21624;SDS011;10974;51.034;3.744;2023-04-03T09:35:38;8.40;;;3.07;;
21624;SDS011;10974;51.034;3.744;2023-04-03T09:38:19;4.83;;;2.43;;
21624;SDS011;10974;51.034;3.744;2023-04-03T09:43:29;5.27;;;2.63;;
21624;SDS011;10974;51.034;3.744;2023-04-03T09:45:56;3.20;;;2.67;;
21624;SDS011;10974;51.034;3.744;2023-04-03T09:48:49;4.30;;;2.50;;
21624;SDS011;10974;51.034;3.744;2023-04-03T09:51:16;4.40;;;2.47;;
21624;SDS011;10974;51.034;3.744;2023-04-03T09:53:42;6.60;;;2.60;;
21624;SDS011;10974;51.034;3.744;2023-04-03T09:58:42;5.13;;;2.70;;
21624;SDS011;10974;51.034;3.744;2023-04-03T10:04:10;3.43;;;3.00;;
21624;SDS011;10974;51.034;3.744;2023-04-03T10:06:40;3.93;;;2.40;;
21624;SDS011;10974;51.034;3.744;2023-04-03T10:09:16;4.13;;;2.57;;
21624;SDS011;10974;51.034;3.744;2023-04-03T10:14:30;3.33;;;2.27;;
21624;SDS011;10974;51.034;3.744;2023-04-03T10:22:08;6.63;;;2.77;;
21624;SDS011;10974;51.034;3.744;2023-04-03T10:34:50;7.97;;;2.40;;
21624;SDS011;10974;51.034;3.744;2023-04-03T10:37:27;5.00;;;2.07;;
21624;SDS011;10974;51.034;3.744;2023-04-03T10:40:04;5.70;;;2.30;;
21624;SDS011;10974;51.034;3.744;2023-04-03T10:57:25;5.27;;;2.50;;
21624;SDS011;10974;51.034;3.744;2023-04-03T11:02:29;3.80;;;2.10;;
21624;SDS011;10974;51.034;3.744;2023-04-03T11:05:07;3.50;;;1.63;;
21624;SDS011;10974;51.034;3.744;2023-04-03T11:07:40;2.13;;;1.70;;
21624;SDS011;10974;51.034;3.744;2023-04-03T11:10:42;2.93;;;1.90;;
21624;SDS011;10974;51.034;3.744;2023-04-03T11:15:44;3.40;;;1.90;;
21624;SDS011;10974;51.034;3.744;2023-04-03T11:18:19;2.87;;;1.63;;
21624;SDS011;10974;51.034;3.744;2023-04-03T11:21:00;2.50;;;1.67;;
21624;SDS011;10974;51.034;3.744;2023-04-03T11:23:30;2.87;;;1.70;;
21624;SDS011;10974;51.034;3.744;2023-04-03T11:26:00;2.80;;;2.03;;
21624;SDS011;10974;51.034;3.744;2023-04-03T11:28:28;6.33;;;2.03;;
21624;SDS011;10974;51.034;3.744;2023-04-03T11:36:25;3.83;;;1.90;;
21624;SDS011;10974;51.034;3.744;2023-04-03T11:38:53;8.90;;;2.10;;
21624;SDS011;10974;51.034;3.744;2023-04-03T11:41:24;2.30;;;1.77;;
21624;SDS011;10974;51.034;3.744;2023-04-03T11:44:25;2.57;;;1.60;;
21624;SDS011;10974;51.034;3.744;2023-04-03T11:46:53;3.63;;;1.87;;
21624;SDS011;10974;51.034;3.744;2023-04-03T11:52:07;2.43;;;1.73;;
21624;SDS011;10974;51.034;3.744;2023-04-03T11:54:42;3.30;;;2.00;;
21624;SDS011;10974;51.034;3.744;2023-04-03T11:59:53;3.90;;;1.87;;
21624;SDS011;10974;51.034;3.744;2023-04-03T12:02:35;3.43;;;1.87;;
21624;SDS011;10974;51.034;3.744;2023-04-03T12:05:44;3.00;;;1.33;;
21624;SDS011;10974;51.034;3.744;2023-04-03T12:10:36;6.17;;;1.57;;
21624;SDS011;10974;51.034;3.744;2023-04-03T12:13:12;6.80;;;1.97;;
21624;SDS011;10974;51.034;3.744;2023-04-03T12:20:53;7.00;;;2.07;;
21624;SDS011;10974;51.034;3.744;2023-04-03T12:23:24;3.23;;;1.53;;
21624;SDS011;10974;51.034;3.744;2023-04-03T12:25:50;2.60;;;1.80;;
21624;SDS011;10974;51.034;3.744;2023-04-03T12:28:17;6.20;;;1.93;;
21624;SDS011;10974;51.034;3.744;2023-04-03T12:30:43;3.50;;;1.57;;
21624;SDS011;10974;51.034;3.744;2023-04-03T12:33:13;3.50;;;1.90;;
21624;SDS011;10974;51.034;3.744;2023-04-03T12:35:49;1.67;;;1.30;;
21624;SDS011;10974;51.034;3.744;2023-04-03T12:38:24;3.17;;;1.80;;
21624;SDS011;10974;51.034;3.744;2023-04-03T12:48:55;2.40;;;1.43;;
21624;SDS011;10974;51.034;3.744;2023-04-03T12:51:44;3.00;;;1.90;;
21624;SDS011;10974;51.034;3.744;2023-04-03T12:54:30;2.60;;;2.03;;
21624;SDS011;10974;51.034;3.744;2023-04-03T12:59:35;3.23;;;1.60;;
21624;SDS011;10974;51.034;3.744;2023-04-03T13:02:07;5.90;;;2.20;;
21624;SDS011;10974;51.034;3.744;2023-04-03T13:04:37;4.00;;;1.57;;
21624;SDS011;10974;51.034;3.744;2023-04-03T13:07:04;3.70;;;1.90;;
21624;SDS011;10974;51.034;3.744;2023-04-03T13:09:31;2.30;;;1.60;;
21624;SDS011;10974;51.034;3.744;2023-04-03T13:14:24;2.50;;;1.60;;
21624;SDS011;10974;51.034;3.744;2023-04-03T13:16:52;2.93;;;1.40;;
21624;SDS011;10974;51.034;3.744;2023-04-03T13:19:20;1.57;;;1.47;;
21624;SDS011;10974;51.034;3.744;2023-04-03T13:21:55;4.40;;;1.40;;
21624;SDS011;10974;51.034;3.744;2023-04-03T13:24:25;2.57;;;1.73;;
21624;SDS011;10974;51.034;3.744;2023-04-03T13:26:51;2.10;;;1.90;;
21624;SDS011;10974;51.034;3.744;2023-04-03T13:29:28;1.40;;;1.30;;
21624;SDS011;10974;51.034;3.744;2023-04-03T13:31:55;5.80;;;1.40;;
21624;SDS011;10974;51.034;3.744;2023-04-03T13:34:22;3.80;;;1.27;;
21624;SDS011;10974;51.034;3.744;2023-04-03T13:39:24;2.20;;;1.37;;
21624;SDS011;10974;51.034;3.744;2023-04-03T13:41:52;1.37;;;1.27;;
21624;SDS011;10974;51.034;3.744;2023-04-03T13:46:51;2.70;;;1.37;;
21624;SDS011;10974;51.034;3.744;2023-04-03T13:49:40;2.30;;;1.23;;
21624;SDS011;10974;51.034;3.744;2023-04-03T13:52:49;1.90;;;1.23;;
21624;SDS011;10974;51.034;3.744;2023-04-03T13:54:55;3.30;;;1.50;;
21624;SDS011;10974;51.034;3.744;2023-04-03T13:57:22;2.70;;;1.50;;
21624;SDS011;10974;51.034;3.744;2023-04-03T13:59:48;2.77;;;1.30;;
21624;SDS011;10974;51.034;3.744;2023-04-03T14:02:17;2.50;;;1.20;;
21624;SDS011;10974;51.034;3.744;2023-04-03T14:07:10;4.97;;;1.50;;
21624;SDS011;10974;51.034;3.744;2023-04-03T14:09:36;3.00;;;1.50;;
21624;SDS011;10974;51.034;3.744;2023-04-03T14:12:05;2.50;;;1.43;;
21624;SDS011;10974;51.034;3.744;2023-04-03T14:14:34;1.50;;;1.40;;
21624;SDS011;10974;51.034;3.744;2023-04-03T14:17:03;3.90;;;1.97;;
21624;SDS011;10974;51.034;3.744;2023-04-03T14:19:35;2.57;;;1.70;;
21624;SDS011;10974;51.034;3.744;2023-04-03T14:22:23;2.50;;;1.33;;
21624;SDS011;10974;51.034;3.744;2023-04-03T14:24:48;2.87;;;1.63;;
21624;SDS011;10974;51.034;3.744;2023-04-03T14:27:48;1.67;;;1.40;;
21624;SDS011;10974;51.034;3.744;2023-04-03T14:30:09;5.27;;;1.50;;
21624;SDS011;10974;51.034;3.744;2023-04-03T14:32:37;1.20;;;1.10;;
21624;SDS011;10974;51.034;3.744;2023-04-03T14:35:04;1.33;;;1.17;;
21624;SDS011;10974;51.034;3.744;2023-04-03T14:37:30;1.40;;;1.30;;
21624;SDS011;10974;51.034;3.744;2023-04-03T14:39:57;2.50;;;1.30;;
21624;SDS011;10974;51.034;3.744;2023-04-03T14:42:25;2.53;;;1.60;;
21624;SDS011;10974;51.034;3.744;2023-04-03T14:44:52;1.90;;;1.43;;
21624;SDS011;10974;51.034;3.744;2023-04-03T14:47:19;2.80;;;1.27;;
21624;SDS011;10974;51.034;3.744;2023-04-03T14:49:46;2.43;;;1.30;;
21624;SDS011;10974;51.034;3.744;2023-04-03T14:52:31;2.70;;;1.20;;
21624;SDS011;10974;51.034;3.744;2023-04-03T14:54:58;3.23;;;1.63;;
21624;SDS011;10974;51.034;3.744;2023-04-03T14:57:25;2.20;;;1.20;;
21624;SDS011;10974;51.034;3.744;2023-04-03T14:59:51;3.30;;;1.60;;
21624;SDS011;10974;51.034;3.744;2023-04-03T15:02:31;3.50;;;1.60;;
21624;SDS011;10974;51.034;3.744;2023-04-03T15:04:58;2.70;;;1.60;;
21624;SDS011;10974;51.034;3.744;2023-04-03T15:07:25;2.20;;;1.70;;
21624;SDS011;10974;51.034;3.744;2023-04-03T15:09:52;2.80;;;1.50;;
21624;SDS011;10974;51.034;3.744;2023-04-03T15:12:21;3.80;;;1.30;;
21624;SDS011;10974;51.034;3.744;2023-04-03T15:14:47;2.60;;;1.70;;
21624;SDS011;10974;51.034;3.744;2023-04-03T15:17:17;2.33;;;1.70;;
21624;SDS011;10974;51.034;3.744;2023-04-03T15:19:43;1.33;;;1.20;;
21624;SDS011;10974;51.034;3.744;2023-04-03T15:22:12;3.87;;;1.50;;
21624;SDS011;10974;51.034;3.744;2023-04-03T15:24:39;5.77;;;3.40;;
21624;SDS011;10974;51.034;3.744;2023-04-03T15:27:05;3.43;;;2.10;;
21624;SDS011;10974;51.034;3.744;2023-04-03T15:29:31;2.00;;;1.60;;
21624;SDS011;10974;51.034;3.744;2023-04-03T15:31:57;4.10;;;2.30;;
21624;SDS011;10974;51.034;3.744;2023-04-03T15:34:23;4.30;;;2.50;;
21624;SDS011;10974;51.034;3.744;2023-04-03T15:36:50;2.87;;;1.77;;
21624;SDS011;10974;51.034;3.744;2023-04-03T15:39:19;2.10;;;1.40;;
21624;SDS011;10974;51.034;3.744;2023-04-03T15:41:45;3.20;;;2.30;;
21624;SDS011;10974;51.034;3.744;2023-04-03T15:44:12;2.00;;;1.47;;
21624;SDS011;10974;51.034;3.744;2023-04-03T15:46:38;2.50;;;1.20;;
21624;SDS011;10974;51.034;3.744;2023-04-03T15:49:07;2.60;;;1.63;;
21624;SDS011;10974;51.034;3.744;2023-04-03T15:51:33;1.87;;;1.30;;
21624;SDS011;10974;51.034;3.744;2023-04-03T15:53:59;2.03;;;1.20;;
21624;SDS011;10974;51.034;3.744;2023-04-03T15:56:25;2.70;;;1.47;;
21624;SDS011;10974;51.034;3.744;2023-04-03T15:58:51;2.80;;;1.77;;
21624;SDS011;10974;51.034;3.744;2023-04-03T16:01:17;2.43;;;1.43;;
21624;SDS011;10974;51.034;3.744;2023-04-03T16:03:43;4.77;;;2.17;;
21624;SDS011;10974;51.034;3.744;2023-04-03T16:06:16;2.07;;;1.40;;
21624;SDS011;10974;51.034;3.744;2023-04-03T16:08:43;3.40;;;1.43;;
21624;SDS011;10974;51.034;3.744;2023-04-03T16:11:09;2.57;;;1.37;;
21624;SDS011;10974;51.034;3.744;2023-04-03T16:13:36;1.67;;;1.23;;
21624;SDS011;10974;51.034;3.744;2023-04-03T16:16:02;2.83;;;1.50;;
21624;SDS011;10974;51.034;3.744;2023-04-03T16:18:28;3.53;;;1.47;;
21624;SDS011;10974;51.034;3.744;2023-04-03T16:20:54;2.40;;;1.20;;
21624;SDS011;10974;51.034;3.744;2023-04-03T16:23:21;3.90;;;1.50;;
21624;SDS011;10974;51.034;3.744;2023-04-03T16:25:47;2.80;;;1.50;;
21624;SDS011;10974;51.034;3.744;2023-04-03T16:28:15;3.57;;;1.63;;
21624;SDS011;10974;51.034;3.744;2023-04-03T16:30:42;2.40;;;1.47;;
21624;SDS011;10974;51.034;3.744;2023-04-03T16:33:09;3.30;;;1.77;;
21624;SDS011;10974;51.034;3.744;2023-04-03T16:35:36;2.20;;;2.00;;
21624;SDS011;10974;51.034;3.744;2023-04-03T16:38:02;3.60;;;1.90;;
21624;SDS011;10974;51.034;3.744;2023-04-03T16:40:28;3.73;;;1.83;;
21624;SDS011;10974;51.034;3.744;2023-04-03T16:42:54;2.13;;;1.40;;
21624;SDS011;10974;51.034;3.744;2023-04-03T16:45:20;1.90;;;1.63;;
21624;SDS011;10974;51.034;3.744;2023-04-03T16:47:46;5.40;;;1.67;;
21624;SDS011;10974;51.034;3.744;2023-04-03T16:50:12;3.10;;;2.13;;
21624;SDS011;10974;51.034;3.744;2023-04-03T16:52:38;7.60;;;2.00;;
21624;SDS011;10974;51.034;3.744;2023-04-03T16:55:05;3.80;;;1.47;;
21624;SDS011;10974;51.034;3.744;2023-04-03T16:57:31;3.30;;;1.70;;
21624;SDS011;10974;51.034;3.744;2023-04-03T16:59:57;5.27;;;2.40;;
21624;SDS011;10974;51.034;3.744;2023-04-03T17:02:23;4.03;;;2.33;;
21624;SDS011;10974;51.034;3.744;2023-04-03T17:04:52;3.10;;;2.63;;
21624;SDS011;10974;51.034;3.744;2023-04-03T17:07:19;3.03;;;2.70;;
21624;SDS011;10974;51.034;3.744;2023-04-03T17:09:45;5.50;;;2.30;;
21624;SDS011;10974;51.034;3.744;2023-04-03T17:12:12;2.30;;;1.90;;
21624;SDS011;10974;51.034;3.744;2023-04-03T17:14:38;3.57;;;2.20;;
21624;SDS011;10974;51.034;3.744;2023-04-03T17:17:04;4.33;;;1.70;;
21624;SDS011;10974;51.034;3.744;2023-04-03T17:19:30;2.00;;;1.57;;
21624;SDS011;10974;51.034;3.744;2023-04-03T17:21:56;8.30;;;1.80;;
21624;SDS011;10974;51.034;3.744;2023-04-03T17:24:23;3.23;;;1.80;;
21624;SDS011;10974;51.034;3.744;2023-04-03T17:26:49;1.63;;;1.53;;
21624;SDS011;10974;51.034;3.744;2023-04-03T17:29:15;2.77;;;2.33;;
21624;SDS011;10974;51.034;3.744;2023-04-03T17:31:41;4.80;;;2.50;;
21624;SDS011;10974;51.034;3.744;2023-04-03T17:34:07;3.50;;;1.87;;
21624;SDS011;10974;51.034;3.744;2023-04-03T17:36:36;5.37;;;1.90;;
21624;SDS011;10974;51.034;3.744;2023-04-03T17:39:02;4.43;;;2.20;;
21624;SDS011;10974;51.034;3.744;2023-04-03T17:41:28;4.17;;;2.13;;
21624;SDS011;10974;51.034;3.744;2023-04-03T17:43:54;3.43;;;1.80;;
21624;SDS011;10974;51.034;3.744;2023-04-03T17:46:21;5.37;;;2.23;;
21624;SDS011;10974;51.034;3.744;2023-04-03T17:48:47;3.20;;;2.20;;
21624;SDS011;10974;51.034;3.744;2023-04-03T17:51:14;3.90;;;2.40;;
21624;SDS011;10974;51.034;3.744;2023-04-03T17:53:41;4.57;;;2.33;;
21624;SDS011;10974;51.034;3.744;2023-04-03T17:56:09;3.97;;;2.10;;
21624;SDS011;10974;51.034;3.744;2023-04-03T17:58:35;4.17;;;2.40;;
21624;SDS011;10974;51.034;3.744;2023-04-03T18:01:20;10.70;;;2.53;;
21624;SDS011;10974;51.034;3.744;2023-04-03T18:03:48;7.43;;;2.60;;
21624;SDS011;10974;51.034;3.744;2023-04-03T18:06:15;4.27;;;2.20;;
21624;SDS011;10974;51.034;3.744;2023-04-03T18:08:46;3.90;;;2.20;;
21624;SDS011;10974;51.034;3.744;2023-04-03T18:11:13;4.57;;;2.10;;
21624;SDS011;10974;51.034;3.744;2023-04-03T18:13:39;2.83;;;2.20;;
21624;SDS011;10974;51.034;3.744;2023-04-03T18:16:07;3.73;;;2.33;;
21624;SDS011;10974;51.034;3.744;2023-04-03T18:18:33;3.40;;;2.10;;
21624;SDS011;10974;51.034;3.744;2023-04-03T18:20:59;2.87;;;2.20;;
21624;SDS011;10974;51.034;3.744;2023-04-03T18:23:26;3.00;;;1.93;;
21624;SDS011;10974;51.034;3.744;2023-04-03T18:25:53;3.50;;;2.70;;
21624;SDS011;10974;51.034;3.744;2023-04-03T18:28:19;3.80;;;2.73;;
21624;SDS011;10974;51.034;3.744;2023-04-03T18:30:46;5.23;;;2.73;;
21624;SDS011;10974;51.034;3.744;2023-04-03T18:33:12;2.63;;;2.23;;
21624;SDS011;10974;51.034;3.744;2023-04-03T18:35:39;4.50;;;2.53;;
21624;SDS011;10974;51.034;3.744;2023-04-03T18:38:05;4.23;;;2.10;;
21624;SDS011;10974;51.034;3.744;2023-04-03T18:40:31;3.03;;;2.70;;
21624;SDS011;10974;51.034;3.744;2023-04-03T18:42:58;5.40;;;3.50;;
21624;SDS011;10974;51.034;3.744;2023-04-03T18:45:25;4.57;;;2.50;;
21624;SDS011;10974;51.034;3.744;2023-04-03T18:47:51;5.40;;;2.60;;
21624;SDS011;10974;51.034;3.744;2023-04-03T18:50:17;3.67;;;2.30;;
21624;SDS011;10974;51.034;3.744;2023-04-03T18:52:44;2.83;;;1.97;;
21624;SDS011;10974;51.034;3.744;2023-04-03T18:55:14;5.00;;;2.63;;
21624;SDS011;10974;51.034;3.744;2023-04-03T18:57:43;3.33;;;2.03;;
21624;SDS011;10974;51.034;3.744;2023-04-03T19:00:09;4.10;;;2.00;;
21624;SDS011;10974;51.034;3.744;2023-04-03T19:02:35;4.87;;;2.70;;
21624;SDS011;10974;51.034;3.744;2023-04-03T19:05:02;10.07;;;3.60;;
21624;SDS011;10974;51.034;3.744;2023-04-03T19:07:28;4.30;;;2.90;;
21624;SDS011;10974;51.034;3.744;2023-04-03T19:09:54;5.23;;;3.10;;
21624;SDS011;10974;51.034;3.744;2023-04-03T19:12:20;4.23;;;3.20;;
21624;SDS011;10974;51.034;3.744;2023-04-03T19:14:46;4.83;;;3.00;;
21624;SDS011;10974;51.034;3.744;2023-04-03T19:17:12;3.70;;;2.07;;
21624;SDS011;10974;51.034;3.744;2023-04-03T19:19:38;8.70;;;2.33;;
21624;SDS011;10974;51.034;3.744;2023-04-03T19:22:05;3.50;;;2.17;;
21624;SDS011;10974;51.034;3.744;2023-04-03T19:24:32;4.07;;;2.37;;
21624;SDS011;10974;51.034;3.744;2023-04-03T19:26:58;3.77;;;2.43;;
21624;SDS011;10974;51.034;3.744;2023-04-03T19:29:24;3.53;;;2.37;;
21624;SDS011;10974;51.034;3.744;2023-04-03T19:31:50;4.80;;;2.67;;
21624;SDS011;10974;51.034;3.744;2023-04-03T19:34:17;3.27;;;2.40;;
21624;SDS011;10974;51.034;3.744;2023-04-03T19:36:43;3.90;;;2.50;;
21624;SDS011;10974;51.034;3.744;2023-04-03T19:39:10;4.33;;;3.13;;
21624;SDS011;10974;51.034;3.744;2023-04-03T19:41:36;3.67;;;2.90;;
21624;SDS011;10974;51.034;3.744;2023-04-03T19:44:04;5.37;;;3.20;;
21624;SDS011;10974;51.034;3.744;2023-04-03T19:46:31;4.53;;;2.60;;
21624;SDS011;10974;51.034;3.744;2023-04-03T19:48:57;3.80;;;3.17;;
21624;SDS011;10974;51.034;3.744;2023-04-03T19:51:23;5.03;;;2.90;;
21624;SDS011;10974;51.034;3.744;2023-04-03T19:53:50;7.30;;;3.27;;
21624;SDS011;10974;51.034;3.744;2023-04-03T19:56:16;4.07;;;2.53;;
21624;SDS011;10974;51.034;3.744;2023-04-03T19:58:42;3.90;;;2.50;;
21624;SDS011;10974;51.034;3.744;2023-04-03T20:01:09;3.97;;;2.20;;
21624;SDS011;10974;51.034;3.744;2023-04-03T20:03:35;5.90;;;2.43;;
21624;SDS011;10974;51.034;3.744;2023-04-03T20:06:02;5.30;;;2.33;;
21624;SDS011;10974;51.034;3.744;2023-04-03T20:08:28;5.87;;;2.90;;
21624;SDS011;10974;51.034;3.744;2023-04-03T20:10:54;6.73;;;2.50;;